createdAt,value
2022-07-28T00:02:16.808Z,14.40
2022-07-28T00:04:47.046Z,14.40
2022-07-28T00:07:16.053Z,14.40
2022-07-28T00:09:43.044Z,14.50
2022-07-28T00:12:10.101Z,14.40
2022-07-28T00:14:38.207Z,14.40
2022-07-28T00:17:07.809Z,14.40
2022-07-28T00:19:34.750Z,14.40
2022-07-28T00:22:02.723Z,14.40
2022-07-28T00:24:29.748Z,14.40
2022-07-28T00:46:19.072Z,14.20
2022-07-28T00:48:53.819Z,14.10
2022-07-28T00:51:22.923Z,14.10
2022-07-28T00:53:52.629Z,14.10
2022-07-28T00:56:20.686Z,14.10
2022-07-28T00:58:50.582Z,14.10
2022-07-28T01:01:22.148Z,14.10
2022-07-28T01:03:55.129Z,14.10
2022-07-28T01:14:11.336Z,14.10
2022-07-28T01:16:45.283Z,14.00
2022-07-28T01:19:54.807Z,14.00
2022-07-28T01:22:25.379Z,14.00
2022-07-28T01:25:13.706Z,14.00
2022-07-28T01:28:12.935Z,13.90
2022-07-28T01:30:43.336Z,13.90
2022-07-28T01:33:21.976Z,13.90
2022-07-28T01:36:18.779Z,13.70
2022-07-28T01:38:47.669Z,13.70
2022-07-28T01:41:21.438Z,13.60
2022-07-28T01:44:02.468Z,13.60
2022-07-28T01:46:29.860Z,13.50
2022-07-28T01:48:58.372Z,13.50
2022-07-28T01:51:28.660Z,13.40
2022-07-28T01:53:58.535Z,13.40
2022-07-28T01:56:28.408Z,13.30
2022-07-28T01:59:00.017Z,13.30
2022-07-28T02:01:27.784Z,13.40
2022-07-28T02:03:59.336Z,13.30
2022-07-28T02:06:27.610Z,13.30
2022-07-28T02:08:56.416Z,13.20
2022-07-28T02:11:40.608Z,13.20
2022-07-28T02:14:20.597Z,13.20
2022-07-28T02:16:51.600Z,13.20
2022-07-28T02:19:19.564Z,13.10
2022-07-28T02:21:50.479Z,13.10
2022-07-28T02:24:21.240Z,13.20
2022-07-28T02:26:53.660Z,13.10
2022-07-28T02:29:49.113Z,13.10
2022-07-28T02:32:37.624Z,13.10
2022-07-28T02:35:17.316Z,13.00
2022-07-28T02:37:54.243Z,13.00
2022-07-28T02:40:23.446Z,12.90
2022-07-28T02:42:53.266Z,12.90
2022-07-28T02:45:22.788Z,12.90
2022-07-28T02:47:53.548Z,12.90
2022-07-28T02:50:24.474Z,12.80
2022-07-28T02:52:53.015Z,12.80
2022-07-28T02:55:20.277Z,12.80
2022-07-28T02:57:50.956Z,12.70
2022-07-28T03:00:20.511Z,12.70
2022-07-28T03:02:48.622Z,12.70
2022-07-28T03:05:18.807Z,12.60
2022-07-28T03:07:51.167Z,12.70
2022-07-28T03:10:33.398Z,12.80
2022-07-28T03:13:03.604Z,13.00
2022-07-28T03:15:34.072Z,12.60
2022-07-28T03:18:04.193Z,12.60
2022-07-28T03:20:35.461Z,12.60
2022-07-28T03:23:02.599Z,12.60
2022-07-28T03:25:46.145Z,12.10
2022-07-28T03:28:19.552Z,13.10
2022-07-28T03:30:54.464Z,13.00
2022-07-28T03:33:21.348Z,12.20
2022-07-28T03:35:52.150Z,12.30
2022-07-28T03:38:26.002Z,12.30
2022-07-28T03:40:55.736Z,13.20
2022-07-28T03:43:25.568Z,12.30
2022-07-28T03:45:52.693Z,12.90
2022-07-28T03:48:23.513Z,12.40
2022-07-28T03:50:50.406Z,13.30
2022-07-28T03:53:22.700Z,12.90
2022-07-28T03:55:53.633Z,12.80
2022-07-28T03:58:22.383Z,12.70
2022-07-28T04:00:53.603Z,12.70
2022-07-28T04:03:35.324Z,12.50
2022-07-28T04:06:07.960Z,13.00
2022-07-28T04:08:35.149Z,12.70
2022-07-28T04:11:02.125Z,12.40
2022-07-28T04:13:32.132Z,12.80
2022-07-28T04:16:01.068Z,12.50
2022-07-28T04:18:28.154Z,12.60
2022-07-28T04:20:55.979Z,12.50
2022-07-28T04:23:24.132Z,12.70
2022-07-28T04:25:51.013Z,12.50
2022-07-28T04:28:17.888Z,13.10
2022-07-28T04:30:44.965Z,13.10
2022-07-28T04:33:13.326Z,12.90
2022-07-28T04:35:40.749Z,12.90
2022-07-28T04:38:07.959Z,13.00
2022-07-28T04:40:34.966Z,13.00
2022-07-28T04:43:03.766Z,13.10
2022-07-28T04:45:30.817Z,13.20
2022-07-28T04:47:58.843Z,13.30
2022-07-28T04:50:28.152Z,13.40
2022-07-28T04:52:57.657Z,13.40
2022-07-28T04:55:26.235Z,13.50
2022-07-28T04:57:58.649Z,13.50
2022-07-28T05:00:25.857Z,13.60
2022-07-28T05:02:53.898Z,13.70
2022-07-28T05:05:20.708Z,13.80
2022-07-28T05:07:47.783Z,13.80
2022-07-28T05:10:15.782Z,14.00
2022-07-28T05:12:42.831Z,14.10
2022-07-28T05:15:10.285Z,14.20
2022-07-28T05:17:37.444Z,14.20
2022-07-28T05:20:05.923Z,14.30
2022-07-28T05:22:51.101Z,14.40
2022-07-28T05:25:22.890Z,14.50
2022-07-28T05:27:52.044Z,14.60
2022-07-28T05:30:20.334Z,14.70
2022-07-28T05:32:51.465Z,14.80
2022-07-28T05:35:21.119Z,14.90
2022-07-28T05:37:50.570Z,15.00
2022-07-28T05:40:18.447Z,15.10
2022-07-28T05:42:53.759Z,15.10
2022-07-28T05:45:30.975Z,15.20
2022-07-28T05:48:00.200Z,15.20
2022-07-28T05:50:27.229Z,15.40
2022-07-28T05:52:55.424Z,15.50
2022-07-28T05:55:22.566Z,15.80
2022-07-28T05:57:55.288Z,16.40
2022-07-28T06:00:23.145Z,17.30
2022-07-28T06:02:53.393Z,18.60
2022-07-28T06:05:23.225Z,19.70
2022-07-28T06:07:51.712Z,20.80
2022-07-28T06:10:24.140Z,21.70
2022-07-28T06:12:55.191Z,22.30
2022-07-28T06:15:26.548Z,22.90
2022-07-28T06:18:03.426Z,23.40
2022-07-28T06:20:31.623Z,23.80
2022-07-28T06:22:59.797Z,24.20
2022-07-28T06:25:31.414Z,24.30
2022-07-28T06:28:00.548Z,24.20
2022-07-28T06:30:31.594Z,24.10
2022-07-28T06:33:07.163Z,24.10
2022-07-28T06:35:44.981Z,24.20
2022-07-28T06:38:15.193Z,24.30
2022-07-28T06:40:46.238Z,24.30
2022-07-28T06:43:16.173Z,24.50
2022-07-28T06:45:45.090Z,24.40
2022-07-28T06:48:20.297Z,24.40
2022-07-28T06:50:47.480Z,24.30
2022-07-28T06:53:14.447Z,24.30
2022-07-28T06:55:41.458Z,24.30
2022-07-28T06:58:08.535Z,24.60
2022-07-28T07:00:36.719Z,24.90
2022-07-28T07:03:04.028Z,25.20
2022-07-28T07:05:32.553Z,25.40
2022-07-28T07:08:00.111Z,25.40
2022-07-28T07:10:27.531Z,24.80
2022-07-28T07:12:58.689Z,24.20
2022-07-28T07:15:25.654Z,23.70
2022-07-28T07:17:54.427Z,23.30
2022-07-28T07:20:21.743Z,23.50
2022-07-28T07:22:51.415Z,23.70
2022-07-28T07:25:19.538Z,23.70
2022-07-28T07:27:46.767Z,23.80
2022-07-28T07:30:15.690Z,24.00
2022-07-28T07:32:43.565Z,24.50
2022-07-28T07:35:12.182Z,24.70
2022-07-28T07:37:40.276Z,25.00
2022-07-28T07:40:07.862Z,25.10
2022-07-28T07:42:34.814Z,24.80
2022-07-28T07:45:01.648Z,24.50
2022-07-28T07:47:28.597Z,23.90
2022-07-28T07:49:55.473Z,23.20
2022-07-28T07:52:22.257Z,23.20
2022-07-28T07:54:49.189Z,23.00
2022-07-28T07:57:16.013Z,22.60
2022-07-28T07:59:43.056Z,22.60
2022-07-28T08:02:10.146Z,22.40
2022-07-28T08:04:38.523Z,22.30
2022-07-28T08:07:06.675Z,22.20
2022-07-28T08:09:34.805Z,22.20
2022-07-28T08:12:02.068Z,22.10
2022-07-28T08:14:29.157Z,21.90
2022-07-28T08:16:56.928Z,21.80
2022-07-28T08:19:24.133Z,21.90
2022-07-28T08:21:52.041Z,21.70
2022-07-28T08:24:27.831Z,21.80
2022-07-28T08:27:04.421Z,22.10
2022-07-28T08:29:31.798Z,22.50
2022-07-28T08:31:58.958Z,22.50
2022-07-28T08:34:31.083Z,22.50
2022-07-28T08:37:01.917Z,22.40
2022-07-28T08:39:30.659Z,22.40
2022-07-28T08:42:17.705Z,22.30
2022-07-28T08:44:55.155Z,22.30
2022-07-28T08:47:23.481Z,22.50
2022-07-28T08:49:56.650Z,22.70
2022-07-28T08:52:26.252Z,23.00
2022-07-28T08:54:55.862Z,23.10
2022-07-28T08:57:34.642Z,23.20
2022-07-28T09:00:02.198Z,23.40
2022-07-28T09:02:31.236Z,23.60
2022-07-28T09:05:03.769Z,23.90
2022-07-28T09:07:32.558Z,24.50
2022-07-28T09:10:02.763Z,25.00
2022-07-28T09:12:30.035Z,25.40
2022-07-28T09:14:57.123Z,25.50
2022-07-28T09:17:25.411Z,25.40
2022-07-28T09:19:52.680Z,25.40
2022-07-28T09:22:19.878Z,25.50
2022-07-28T09:24:52.190Z,25.70
2022-07-28T09:27:25.275Z,26.10
2022-07-28T09:30:00.045Z,26.50
2022-07-28T09:32:27.661Z,26.80
2022-07-28T09:34:54.814Z,26.90
2022-07-28T09:37:27.980Z,27.10
2022-07-28T09:39:59.377Z,27.30
2022-07-28T09:42:26.924Z,27.20
2022-07-28T09:45:24.816Z,26.80
2022-07-28T09:48:13.667Z,26.50
2022-07-28T09:50:41.903Z,26.10
2022-07-28T09:53:24.402Z,25.80
2022-07-28T09:56:00.158Z,25.70
2022-07-28T09:58:29.558Z,25.70
2022-07-28T10:01:08.752Z,25.60
2022-07-28T10:03:37.397Z,25.60
2022-07-28T10:06:08.531Z,25.60
2022-07-28T10:08:48.370Z,25.60
2022-07-28T10:11:21.105Z,25.80
2022-07-28T10:13:57.957Z,25.90
2022-07-28T10:16:28.210Z,25.90
2022-07-28T10:18:56.314Z,26.00
2022-07-28T10:21:24.725Z,26.20
2022-07-28T10:23:54.549Z,26.00
2022-07-28T10:26:29.362Z,26.10
2022-07-28T10:28:57.969Z,26.10
2022-07-28T10:31:34.485Z,26.10
2022-07-28T10:34:02.947Z,26.20
2022-07-28T10:36:32.370Z,25.90
2022-07-28T10:39:13.268Z,25.80
2022-07-28T10:41:42.256Z,25.60
2022-07-28T10:44:14.392Z,25.60
2022-07-28T10:46:42.640Z,25.60
2022-07-28T10:49:11.108Z,25.60
2022-07-28T10:52:00.109Z,25.60
2022-07-28T10:54:30.545Z,25.50
2022-07-28T10:56:59.960Z,25.60
2022-07-28T11:00:13.117Z,25.60
2022-07-28T11:03:14.008Z,25.70
2022-07-28T11:05:42.525Z,26.00
2022-07-28T11:08:28.545Z,26.10
2022-07-28T11:11:05.570Z,26.10
2022-07-28T11:13:41.153Z,26.10
2022-07-28T11:16:14.536Z,26.00
2022-07-28T11:19:36.668Z,26.00
2022-07-28T11:22:18.841Z,26.00
2022-07-28T11:25:17.976Z,25.80
2022-07-28T11:27:51.334Z,25.60
2022-07-28T11:30:36.707Z,25.70
2022-07-28T11:33:09.374Z,25.80
2022-07-28T11:35:54.627Z,25.60
2022-07-28T11:38:24.100Z,25.60
2022-07-28T11:40:53.516Z,25.70
2022-07-28T11:43:35.817Z,25.80
2022-07-28T11:46:09.656Z,25.90
2022-07-28T11:48:46.877Z,26.00
2022-07-28T11:51:14.538Z,26.20
2022-07-28T11:53:53.088Z,26.10
2022-07-28T11:56:36.200Z,26.10
2022-07-28T11:59:05.830Z,26.10
2022-07-28T12:01:36.841Z,26.00
2022-07-28T12:04:13.351Z,25.90
2022-07-28T12:06:42.734Z,25.80
2022-07-28T12:09:10.816Z,25.70
2022-07-28T12:11:42.471Z,25.80
2022-07-28T12:14:12.011Z,26.10
2022-07-28T12:16:41.604Z,26.00
2022-07-28T12:19:09.964Z,26.00
2022-07-28T12:21:46.056Z,26.20
2022-07-28T12:24:18.686Z,26.30
2022-07-28T12:26:49.603Z,26.40
2022-07-28T12:29:17.776Z,26.60
2022-07-28T12:31:59.450Z,26.70
2022-07-28T12:34:29.287Z,26.70
2022-07-28T12:37:04.232Z,26.50
2022-07-28T12:39:36.786Z,26.20
2022-07-28T12:42:08.389Z,25.90
2022-07-28T12:44:49.625Z,25.80
2022-07-28T12:47:24.897Z,25.80
2022-07-28T12:50:15.303Z,25.80
2022-07-28T12:52:45.970Z,25.60
2022-07-28T12:55:24.910Z,25.50
2022-07-28T12:57:52.923Z,25.60
2022-07-28T13:00:25.520Z,25.70
2022-07-28T13:03:00.986Z,25.80
2022-07-28T13:05:53.962Z,25.90
2022-07-28T13:08:21.502Z,26.20
2022-07-28T13:10:57.039Z,26.50
2022-07-28T13:13:25.347Z,26.90
2022-07-28T13:16:12.540Z,27.20
2022-07-28T13:19:19.411Z,27.40
2022-07-28T13:21:59.471Z,27.40
2022-07-28T13:24:30.329Z,27.20
2022-07-28T13:26:59.303Z,27.10
2022-07-28T13:29:26.501Z,26.90
2022-07-28T13:31:55.068Z,26.80
2022-07-28T13:34:22.583Z,26.70
2022-07-28T13:36:50.018Z,26.70
2022-07-28T13:39:17.919Z,26.60
2022-07-28T13:41:56.527Z,26.50
2022-07-28T13:44:30.041Z,26.50
2022-07-28T13:46:59.043Z,26.60
2022-07-28T13:49:30.355Z,26.70
2022-07-28T13:52:06.123Z,26.50
2022-07-28T13:54:39.872Z,26.20
2022-07-28T13:57:07.180Z,25.90
2022-07-28T13:59:35.472Z,25.70
2022-07-28T14:02:05.396Z,25.80
2022-07-28T14:04:32.358Z,25.90
2022-07-28T14:06:59.486Z,25.80
2022-07-28T14:09:26.293Z,25.90
2022-07-28T14:11:53.561Z,25.90
2022-07-28T14:14:25.140Z,26.00
2022-07-28T14:16:54.560Z,26.10
2022-07-28T14:19:38.493Z,26.10
2022-07-28T14:22:12.851Z,26.10
2022-07-28T14:24:41.521Z,26.10
2022-07-28T14:27:08.374Z,26.00
2022-07-28T14:29:37.509Z,26.20
2022-07-28T14:32:04.737Z,26.30
2022-07-28T14:34:31.569Z,26.50
2022-07-28T14:37:03.409Z,26.50
2022-07-28T14:39:35.609Z,26.70
2022-07-28T14:42:02.454Z,26.70
2022-07-28T14:44:29.295Z,26.70
2022-07-28T14:46:56.152Z,26.60
2022-07-28T14:49:23.361Z,26.60
2022-07-28T14:51:51.527Z,26.40
2022-07-28T14:54:19.140Z,26.40
2022-07-28T14:56:46.552Z,26.60
2022-07-28T14:59:16.079Z,26.80
2022-07-28T15:01:48.710Z,26.80
2022-07-28T15:04:16.992Z,26.90
2022-07-28T15:06:47.491Z,27.00
2022-07-28T15:09:15.054Z,27.00
2022-07-28T15:11:42.697Z,26.70
2022-07-28T15:14:09.866Z,26.40
2022-07-28T15:16:40.111Z,26.30
2022-07-28T15:19:10.929Z,26.30
2022-07-28T15:21:42.099Z,26.40
2022-07-28T15:24:09.923Z,26.50
2022-07-28T15:26:37.403Z,26.60
2022-07-28T15:29:05.439Z,26.70
2022-07-28T15:31:32.655Z,26.80
2022-07-28T15:34:00.067Z,26.90
2022-07-28T15:36:27.742Z,27.00
2022-07-28T15:38:59.093Z,27.00
2022-07-28T15:41:26.230Z,27.10
2022-07-28T15:43:53.507Z,27.20
2022-07-28T15:46:20.642Z,27.30
2022-07-28T15:48:50.500Z,27.30
2022-07-28T15:51:19.360Z,27.40
2022-07-28T15:53:56.236Z,27.40
2022-07-28T15:56:23.748Z,27.50
2022-07-28T15:58:53.579Z,27.50
2022-07-28T16:01:22.086Z,27.60
2022-07-28T16:03:50.055Z,27.70
2022-07-28T16:06:17.681Z,27.70
2022-07-28T16:08:47.379Z,27.90
2022-07-28T16:11:20.287Z,27.80
2022-07-28T16:13:49.868Z,27.80
2022-07-28T16:16:17.078Z,27.30
2022-07-28T16:18:44.325Z,27.00
2022-07-28T16:21:11.453Z,26.80
2022-07-28T16:23:39.509Z,26.60
2022-07-28T16:26:08.828Z,26.50
2022-07-28T16:28:36.995Z,26.40
2022-07-28T16:31:04.074Z,26.40
2022-07-28T16:33:33.915Z,26.40
2022-07-28T16:36:02.228Z,26.40
2022-07-28T16:38:30.237Z,26.30
2022-07-28T16:41:00.495Z,26.20
2022-07-28T16:43:27.655Z,26.10
2022-07-28T16:45:58.963Z,25.90
2022-07-28T16:48:26.042Z,25.70
2022-07-28T16:50:56.785Z,25.50
2022-07-28T16:53:26.646Z,25.40
2022-07-28T16:55:56.654Z,25.30
2022-07-28T16:58:24.237Z,25.20
2022-07-28T17:00:53.534Z,25.10
2022-07-28T17:03:20.820Z,25.00
2022-07-28T17:05:55.340Z,24.90
2022-07-28T17:08:32.639Z,24.90
2022-07-28T17:11:02.132Z,24.90
2022-07-28T17:13:29.493Z,24.70
2022-07-28T17:15:59.800Z,24.60
2022-07-28T17:18:26.756Z,24.50
2022-07-28T17:20:56.189Z,24.50
2022-07-28T17:23:24.806Z,24.40
2022-07-28T17:28:43.729Z,24.30
2022-07-28T17:31:15.493Z,24.20
2022-07-28T17:33:42.880Z,24.20
2022-07-28T17:36:09.821Z,24.10
2022-07-28T17:38:44.732Z,24.10
2022-07-28T17:41:11.965Z,24.00
2022-07-28T17:43:45.161Z,23.90
2022-07-28T17:46:14.811Z,24.00
2022-07-28T17:48:53.303Z,24.00
2022-07-28T17:51:24.215Z,23.90
2022-07-28T17:53:51.345Z,23.80
2022-07-28T17:56:23.067Z,23.70
2022-07-28T17:58:53.244Z,23.70
2022-07-28T18:01:27.947Z,23.60
2022-07-28T18:04:00.916Z,23.50
2022-07-28T18:06:34.226Z,23.50
2022-07-28T18:09:06.470Z,23.40
2022-07-28T18:11:56.094Z,23.40
2022-07-28T18:14:32.253Z,23.30
2022-07-28T18:17:02.874Z,23.30
2022-07-28T18:19:30.102Z,23.30
2022-07-28T18:21:58.839Z,23.50
2022-07-28T18:24:33.079Z,23.80
2022-07-28T18:27:05.094Z,23.70
2022-07-28T18:29:38.539Z,23.20
2022-07-28T18:32:12.712Z,23.20
2022-07-28T18:34:45.791Z,23.00
2022-07-28T18:37:15.740Z,22.90
2022-07-28T18:39:42.926Z,22.70
2022-07-28T18:42:10.650Z,22.60
2022-07-28T18:44:39.500Z,22.50
2022-07-28T18:47:08.473Z,22.50
2022-07-28T18:49:37.740Z,22.30
2022-07-28T18:52:06.062Z,22.30
2022-07-28T18:54:36.183Z,22.10
2022-07-28T18:57:03.062Z,21.90
2022-07-28T18:59:29.895Z,21.80
2022-07-28T19:01:57.127Z,21.60
2022-07-28T19:04:23.962Z,21.50
2022-07-28T19:06:51.077Z,21.40
2022-07-28T19:09:19.440Z,21.20
2022-07-28T19:11:48.611Z,21.20
2022-07-28T19:14:16.522Z,21.10
2022-07-28T19:16:44.544Z,21.10
2022-07-28T19:19:16.162Z,21.10
2022-07-28T19:21:43.880Z,21.10
2022-07-28T19:24:14.711Z,20.90
2022-07-28T19:26:43.540Z,20.90
2022-07-28T19:29:10.615Z,20.80
2022-07-28T19:31:37.801Z,20.70
2022-07-28T19:34:07.808Z,20.70
2022-07-28T19:36:36.824Z,20.70
2022-07-28T19:39:04.208Z,20.60
2022-07-28T19:41:31.699Z,20.50
2022-07-28T19:43:58.569Z,20.50
2022-07-28T19:46:26.157Z,20.40
2022-07-28T19:48:54.476Z,20.40
2022-07-28T19:51:23.872Z,20.30
2022-07-28T19:53:53.468Z,20.30
2022-07-28T19:56:20.714Z,20.30
2022-07-28T19:58:51.348Z,20.20
2022-07-28T20:01:19.198Z,20.20
2022-07-28T20:04:01.937Z,20.10
2022-07-28T20:06:31.954Z,20.10
2022-07-28T20:08:59.728Z,20.00
2022-07-28T20:11:27.987Z,19.90
2022-07-28T20:13:57.608Z,19.90
2022-07-28T20:16:29.757Z,19.90
2022-07-28T20:18:59.840Z,19.80
2022-07-28T20:21:26.915Z,19.80
2022-07-28T20:23:55.861Z,19.70
2022-07-28T20:26:29.661Z,19.70
2022-07-28T20:29:01.751Z,19.60
2022-07-28T20:31:29.162Z,19.50
2022-07-28T20:33:57.163Z,19.60
2022-07-28T20:36:29.493Z,19.50
2022-07-28T20:38:57.458Z,19.50
2022-07-28T20:41:24.627Z,19.50
2022-07-28T20:44:11.148Z,19.50
2022-07-28T20:46:38.708Z,19.40
2022-07-28T20:49:05.941Z,19.30
2022-07-28T20:51:33.152Z,19.30
2022-07-28T20:54:00.198Z,19.30
2022-07-28T20:56:28.211Z,19.30
2022-07-28T20:58:58.713Z,19.20
2022-07-28T21:01:30.370Z,19.10
2022-07-28T21:03:57.334Z,19.00
2022-07-28T21:06:24.293Z,18.90
2022-07-28T21:08:51.711Z,18.90
2022-07-28T21:11:18.638Z,18.80
2022-07-28T21:13:47.863Z,18.80
2022-07-28T21:16:18.821Z,18.80
2022-07-28T21:18:45.838Z,18.80
2022-07-28T21:21:18.731Z,18.70
2022-07-28T21:23:45.694Z,18.70
2022-07-28T21:26:13.004Z,18.70
2022-07-28T21:29:02.479Z,18.70
2022-07-28T21:31:29.469Z,18.70
2022-07-28T21:33:56.675Z,18.70
2022-07-28T21:36:26.533Z,18.60
2022-07-28T21:38:56.497Z,18.60
2022-07-28T21:41:25.644Z,18.60
2022-07-28T21:44:00.822Z,18.50
2022-07-28T21:46:30.895Z,18.50
2022-07-28T21:49:04.275Z,18.50
2022-07-28T21:51:31.890Z,18.50
2022-07-28T21:54:01.756Z,18.60
2022-07-28T21:56:30.333Z,18.30
2022-07-28T21:58:57.299Z,18.30
2022-07-28T22:01:24.395Z,18.30
2022-07-28T22:03:51.666Z,18.20
2022-07-28T22:06:18.904Z,18.20
2022-07-28T22:08:45.946Z,18.10
2022-07-28T22:11:12.819Z,18.00
2022-07-28T22:13:39.882Z,17.90
2022-07-28T22:16:07.073Z,17.90
2022-07-28T22:18:34.129Z,17.90
2022-07-28T22:21:01.075Z,17.90
2022-07-28T22:23:28.961Z,17.80
2022-07-28T22:25:56.467Z,17.40
2022-07-28T22:28:29.993Z,17.90
2022-07-28T22:30:58.406Z,17.80
2022-07-28T22:33:26.633Z,17.70
2022-07-28T22:35:53.697Z,17.80
2022-07-28T22:38:20.538Z,17.70
2022-07-28T22:40:47.657Z,17.60
2022-07-28T22:43:14.658Z,17.60
2022-07-28T22:45:50.228Z,17.40
2022-07-28T22:48:18.517Z,17.60
2022-07-28T22:50:45.517Z,17.50
2022-07-28T22:53:12.475Z,17.50
2022-07-28T22:55:40.220Z,17.50
2022-07-28T22:58:07.399Z,17.40
2022-07-28T23:00:36.609Z,17.40
2022-07-28T23:03:04.828Z,17.40
2022-07-28T23:05:32.422Z,17.40
2022-07-28T23:07:59.356Z,17.30
2022-07-28T23:10:27.010Z,17.30
2022-07-28T23:12:57.368Z,17.30
2022-07-28T23:15:40.545Z,17.30
2022-07-28T23:18:10.599Z,17.30
2022-07-28T23:20:38.831Z,17.30
2022-07-28T23:23:05.970Z,17.20
2022-07-28T23:25:35.508Z,17.20
2022-07-28T23:28:02.438Z,17.20
2022-07-28T23:30:29.621Z,17.20
2022-07-28T23:32:56.654Z,17.20
2022-07-28T23:35:23.609Z,17.10
2022-07-28T23:37:50.451Z,17.10
2022-07-28T23:40:17.303Z,17.10
2022-07-28T23:42:44.138Z,17.10
2022-07-28T23:45:11.356Z,17.00
2022-07-28T23:47:38.111Z,17.00
2022-07-28T23:50:05.755Z,17.00
2022-07-28T23:52:32.764Z,17.00
2022-07-28T23:54:59.807Z,16.90
2022-07-28T23:57:31.095Z,17.00
2022-07-28T23:59:59.280Z,16.90
